sensor_id;sensor_type;location;lat;lon;timestamp;P1;durP1;ratioP1;P2;durP2;ratioP2
57331;SDS011;43164;50.908;18.092;2023-04-01T00:01:16;10.70;;;4.60;;
57331;SDS011;43164;50.908;18.092;2023-04-01T00:03:50;11.30;;;5.50;;
57331;SDS011;43164;50.908;18.092;2023-04-01T00:06:23;9.80;;;5.10;;
57331;SDS011;43164;50.908;18.092;2023-04-01T00:08:53;13.80;;;4.60;;
57331;SDS011;43164;50.908;18.092;2023-04-01T00:11:21;10.70;;;5.00;;
57331;SDS011;43164;50.908;18.092;2023-04-01T00:13:49;11.50;;;5.50;;
57331;SDS011;43164;50.908;18.092;2023-04-01T00:16:17;11.20;;;5.40;;
57331;SDS011;43164;50.908;18.092;2023-04-01T00:18:44;11.40;;;5.80;;
57331;SDS011;43164;50.908;18.092;2023-04-01T00:21:13;12.00;;;5.50;;
57331;SDS011;43164;50.908;18.092;2023-04-01T00:23:42;11.90;;;5.70;;
57331;SDS011;43164;50.908;18.092;2023-04-01T00:26:10;10.30;;;5.70;;
57331;SDS011;43164;50.908;18.092;2023-04-01T00:28:39;12.20;;;5.60;;
57331;SDS011;43164;50.908;18.092;2023-04-01T00:31:07;10.70;;;5.90;;
57331;SDS011;43164;50.908;18.092;2023-04-01T00:33:36;12.70;;;6.00;;
57331;SDS011;43164;50.908;18.092;2023-04-01T00:36:11;11.40;;;6.00;;
57331;SDS011;43164;50.908;18.092;2023-04-01T00:38:40;12.50;;;5.90;;
57331;SDS011;43164;50.908;18.092;2023-04-01T00:41:09;11.80;;;6.10;;
57331;SDS011;43164;50.908;18.092;2023-04-01T00:43:43;12.00;;;6.60;;
57331;SDS011;43164;50.908;18.092;2023-04-01T00:46:12;13.80;;;7.10;;
57331;SDS011;43164;50.908;18.092;2023-04-01T00:48:51;12.50;;;6.50;;
57331;SDS011;43164;50.908;18.092;2023-04-01T00:51:25;13.40;;;7.70;;
57331;SDS011;43164;50.908;18.092;2023-04-01T00:53:55;13.50;;;6.40;;
57331;SDS011;43164;50.908;18.092;2023-04-01T00:56:34;12.40;;;7.20;;
57331;SDS011;43164;50.908;18.092;2023-04-01T00:59:11;13.70;;;7.60;;
57331;SDS011;43164;50.908;18.092;2023-04-01T01:01:50;13.00;;;7.30;;
57331;SDS011;43164;50.908;18.092;2023-04-01T01:04:20;14.80;;;8.20;;
57331;SDS011;43164;50.908;18.092;2023-04-01T01:06:59;13.80;;;7.70;;
57331;SDS011;43164;50.908;18.092;2023-04-01T01:12:47;14.20;;;8.50;;
57331;SDS011;43164;50.908;18.092;2023-04-01T01:15:30;13.80;;;8.50;;
57331;SDS011;43164;50.908;18.092;2023-04-01T01:18:06;15.20;;;8.30;;
57331;SDS011;43164;50.908;18.092;2023-04-01T01:23:42;15.10;;;8.30;;
57331;SDS011;43164;50.908;18.092;2023-04-01T01:32:07;16.00;;;9.20;;
57331;SDS011;43164;50.908;18.092;2023-04-01T01:35:19;15.90;;;8.30;;
57331;SDS011;43164;50.908;18.092;2023-04-01T01:38:02;15.60;;;7.80;;
57331;SDS011;43164;50.908;18.092;2023-04-01T01:40:33;14.70;;;7.70;;
57331;SDS011;43164;50.908;18.092;2023-04-01T01:43:06;13.20;;;8.10;;
57331;SDS011;43164;50.908;18.092;2023-04-01T01:45:41;16.20;;;8.70;;
57331;SDS011;43164;50.908;18.092;2023-04-01T01:48:13;16.60;;;8.50;;
57331;SDS011;43164;50.908;18.092;2023-04-01T01:50:42;15.10;;;7.90;;
57331;SDS011;43164;50.908;18.092;2023-04-01T01:53:12;12.80;;;7.50;;
57331;SDS011;43164;50.908;18.092;2023-04-01T01:55:45;12.60;;;7.50;;
57331;SDS011;43164;50.908;18.092;2023-04-01T02:00:50;14.70;;;8.50;;
57331;SDS011;43164;50.908;18.092;2023-04-01T02:03:27;11.70;;;7.60;;
57331;SDS011;43164;50.908;18.092;2023-04-01T02:05:56;14.90;;;8.00;;
57331;SDS011;43164;50.908;18.092;2023-04-01T02:11:13;14.40;;;7.70;;
57331;SDS011;43164;50.908;18.092;2023-04-01T02:16:18;15.10;;;7.90;;
57331;SDS011;43164;50.908;18.092;2023-04-01T02:18:56;17.20;;;7.90;;
57331;SDS011;43164;50.908;18.092;2023-04-01T02:21:26;15.10;;;8.50;;
57331;SDS011;43164;50.908;18.092;2023-04-01T02:23:58;14.30;;;8.30;;
57331;SDS011;43164;50.908;18.092;2023-04-01T02:26:28;13.00;;;7.40;;
57331;SDS011;43164;50.908;18.092;2023-04-01T02:28:57;14.30;;;8.00;;
57331;SDS011;43164;50.908;18.092;2023-04-01T02:31:26;15.60;;;7.80;;
57331;SDS011;43164;50.908;18.092;2023-04-01T02:33:55;15.50;;;7.70;;
57331;SDS011;43164;50.908;18.092;2023-04-01T02:36:23;13.20;;;7.40;;
57331;SDS011;43164;50.908;18.092;2023-04-01T02:38:51;12.40;;;7.80;;
57331;SDS011;43164;50.908;18.092;2023-04-01T02:41:21;13.50;;;7.50;;
57331;SDS011;43164;50.908;18.092;2023-04-01T02:43:49;16.70;;;8.20;;
57331;SDS011;43164;50.908;18.092;2023-04-01T02:46:17;13.20;;;7.40;;
57331;SDS011;43164;50.908;18.092;2023-04-01T02:48:45;17.40;;;8.70;;
57331;SDS011;43164;50.908;18.092;2023-04-01T02:51:12;16.70;;;8.50;;
57331;SDS011;43164;50.908;18.092;2023-04-01T02:53:39;15.00;;;7.50;;
57331;SDS011;43164;50.908;18.092;2023-04-01T02:56:07;13.40;;;7.20;;
57331;SDS011;43164;50.908;18.092;2023-04-01T02:58:34;12.90;;;6.80;;
57331;SDS011;43164;50.908;18.092;2023-04-01T03:01:02;11.30;;;6.80;;
57331;SDS011;43164;50.908;18.092;2023-04-01T03:03:30;13.50;;;7.60;;
57331;SDS011;43164;50.908;18.092;2023-04-01T03:05:57;13.60;;;7.30;;
57331;SDS011;43164;50.908;18.092;2023-04-01T03:08:27;13.00;;;7.80;;
57331;SDS011;43164;50.908;18.092;2023-04-01T03:10:54;12.50;;;6.80;;
57331;SDS011;43164;50.908;18.092;2023-04-01T03:13:22;12.40;;;6.50;;
57331;SDS011;43164;50.908;18.092;2023-04-01T03:15:49;13.40;;;6.60;;
57331;SDS011;43164;50.908;18.092;2023-04-01T03:18:17;13.00;;;6.90;;
57331;SDS011;43164;50.908;18.092;2023-04-01T03:20:45;13.00;;;7.10;;
57331;SDS011;43164;50.908;18.092;2023-04-01T03:23:13;12.40;;;6.80;;
57331;SDS011;43164;50.908;18.092;2023-04-01T03:25:40;14.70;;;6.80;;
57331;SDS011;43164;50.908;18.092;2023-04-01T03:28:08;12.20;;;6.30;;
57331;SDS011;43164;50.908;18.092;2023-04-01T03:30:37;12.00;;;6.80;;
57331;SDS011;43164;50.908;18.092;2023-04-01T03:33:04;13.90;;;6.00;;
57331;SDS011;43164;50.908;18.092;2023-04-01T03:35:32;11.60;;;6.00;;
57331;SDS011;43164;50.908;18.092;2023-04-01T03:38:06;11.30;;;6.70;;
57331;SDS011;43164;50.908;18.092;2023-04-01T03:40:33;13.20;;;6.30;;
57331;SDS011;43164;50.908;18.092;2023-04-01T03:43:05;10.80;;;6.10;;
57331;SDS011;43164;50.908;18.092;2023-04-01T03:45:35;10.60;;;6.10;;
57331;SDS011;43164;50.908;18.092;2023-04-01T03:48:03;11.20;;;6.10;;
57331;SDS011;43164;50.908;18.092;2023-04-01T03:50:31;9.80;;;5.60;;
57331;SDS011;43164;50.908;18.092;2023-04-01T03:53:05;10.30;;;6.10;;
57331;SDS011;43164;50.908;18.092;2023-04-01T03:55:33;12.00;;;5.80;;
57331;SDS011;43164;50.908;18.092;2023-04-01T03:58:02;11.30;;;5.90;;
57331;SDS011;43164;50.908;18.092;2023-04-01T04:00:31;13.50;;;5.90;;
57331;SDS011;43164;50.908;18.092;2023-04-01T04:02:59;12.40;;;6.60;;
57331;SDS011;43164;50.908;18.092;2023-04-01T04:05:27;10.60;;;5.80;;
57331;SDS011;43164;50.908;18.092;2023-04-01T04:07:54;10.50;;;6.00;;
57331;SDS011;43164;50.908;18.092;2023-04-01T04:10:23;11.60;;;6.20;;
57331;SDS011;43164;50.908;18.092;2023-04-01T04:12:51;9.70;;;5.90;;
57331;SDS011;43164;50.908;18.092;2023-04-01T04:15:20;11.70;;;6.10;;
57331;SDS011;43164;50.908;18.092;2023-04-01T04:17:47;12.50;;;6.80;;
57331;SDS011;43164;50.908;18.092;2023-04-01T04:20:15;13.80;;;7.10;;
57331;SDS011;43164;50.908;18.092;2023-04-01T04:22:44;14.10;;;6.80;;
57331;SDS011;43164;50.908;18.092;2023-04-01T04:25:11;12.00;;;7.20;;
57331;SDS011;43164;50.908;18.092;2023-04-01T04:27:39;14.20;;;7.50;;
57331;SDS011;43164;50.908;18.092;2023-04-01T04:30:07;15.00;;;7.60;;
57331;SDS011;43164;50.908;18.092;2023-04-01T04:32:36;13.40;;;7.10;;
57331;SDS011;43164;50.908;18.092;2023-04-01T04:35:04;17.80;;;7.80;;
57331;SDS011;43164;50.908;18.092;2023-04-01T04:37:33;12.70;;;7.10;;
57331;SDS011;43164;50.908;18.092;2023-04-01T04:40:01;14.00;;;7.10;;
57331;SDS011;43164;50.908;18.092;2023-04-01T04:42:30;13.40;;;6.00;;
57331;SDS011;43164;50.908;18.092;2023-04-01T04:44:58;13.40;;;6.60;;
57331;SDS011;43164;50.908;18.092;2023-04-01T04:47:27;10.30;;;5.80;;
57331;SDS011;43164;50.908;18.092;2023-04-01T04:49:56;10.10;;;5.40;;
57331;SDS011;43164;50.908;18.092;2023-04-01T04:52:26;10.70;;;5.00;;
57331;SDS011;43164;50.908;18.092;2023-04-01T04:54:55;11.90;;;4.70;;
57331;SDS011;43164;50.908;18.092;2023-04-01T04:57:24;9.20;;;4.40;;
57331;SDS011;43164;50.908;18.092;2023-04-01T04:59:54;9.30;;;3.70;;
57331;SDS011;43164;50.908;18.092;2023-04-01T05:02:24;7.60;;;3.70;;
57331;SDS011;43164;50.908;18.092;2023-04-01T05:04:54;8.40;;;3.70;;
57331;SDS011;43164;50.908;18.092;2023-04-01T05:07:38;9.70;;;3.80;;
57331;SDS011;43164;50.908;18.092;2023-04-01T05:10:17;8.40;;;3.80;;
57331;SDS011;43164;50.908;18.092;2023-04-01T05:12:49;6.70;;;3.30;;
57331;SDS011;43164;50.908;18.092;2023-04-01T05:15:24;9.00;;;4.30;;
57331;SDS011;43164;50.908;18.092;2023-04-01T05:18:06;9.20;;;3.60;;
57331;SDS011;43164;50.908;18.092;2023-04-01T05:20:39;9.50;;;4.10;;
57331;SDS011;43164;50.908;18.092;2023-04-01T05:23:16;7.90;;;3.50;;
57331;SDS011;43164;50.908;18.092;2023-04-01T05:33:04;9.40;;;4.20;;
57331;SDS011;43164;50.908;18.092;2023-04-01T05:35:39;11.00;;;4.30;;
57331;SDS011;43164;50.908;18.092;2023-04-01T05:38:14;7.90;;;4.00;;
57331;SDS011;43164;50.908;18.092;2023-04-01T05:40:44;9.60;;;4.20;;
57331;SDS011;43164;50.908;18.092;2023-04-01T05:43:15;9.90;;;4.20;;
57331;SDS011;43164;50.908;18.092;2023-04-01T05:45:44;9.00;;;3.90;;
57331;SDS011;43164;50.908;18.092;2023-04-01T05:48:12;8.10;;;3.90;;
57331;SDS011;43164;50.908;18.092;2023-04-01T05:50:47;8.20;;;3.80;;
57331;SDS011;43164;50.908;18.092;2023-04-01T05:53:18;7.80;;;4.10;;
57331;SDS011;43164;50.908;18.092;2023-04-01T05:55:47;8.30;;;3.90;;
57331;SDS011;43164;50.908;18.092;2023-04-01T05:58:15;8.40;;;4.10;;
57331;SDS011;43164;50.908;18.092;2023-04-01T06:00:43;11.40;;;4.60;;
57331;SDS011;43164;50.908;18.092;2023-04-01T06:03:12;9.60;;;4.40;;
57331;SDS011;43164;50.908;18.092;2023-04-01T06:05:42;9.70;;;4.40;;
57331;SDS011;43164;50.908;18.092;2023-04-01T06:08:14;9.10;;;4.40;;
57331;SDS011;43164;50.908;18.092;2023-04-01T06:10:55;8.90;;;3.90;;
57331;SDS011;43164;50.908;18.092;2023-04-01T06:22:02;9.00;;;4.10;;
57331;SDS011;43164;50.908;18.092;2023-04-01T06:24:54;8.20;;;3.90;;
57331;SDS011;43164;50.908;18.092;2023-04-01T06:30:46;10.10;;;3.50;;
57331;SDS011;43164;50.908;18.092;2023-04-01T06:42:54;10.40;;;4.10;;
57331;SDS011;43164;50.908;18.092;2023-04-01T06:45:51;8.00;;;3.30;;
57331;SDS011;43164;50.908;18.092;2023-04-01T06:55:35;6.70;;;2.90;;
57331;SDS011;43164;50.908;18.092;2023-04-01T07:01:40;8.00;;;2.90;;
57331;SDS011;43164;50.908;18.092;2023-04-01T07:04:16;7.00;;;2.40;;
57331;SDS011;43164;50.908;18.092;2023-04-01T07:06:52;5.40;;;2.60;;
57331;SDS011;43164;50.908;18.092;2023-04-01T07:09:43;4.40;;;2.00;;
57331;SDS011;43164;50.908;18.092;2023-04-01T07:12:24;6.30;;;2.30;;
57331;SDS011;43164;50.908;18.092;2023-04-01T07:15:21;6.80;;;2.70;;
57331;SDS011;43164;50.908;18.092;2023-04-01T07:18:20;4.20;;;1.60;;
57331;SDS011;43164;50.908;18.092;2023-04-01T07:21:09;5.20;;;1.80;;
57331;SDS011;43164;50.908;18.092;2023-04-01T07:24:17;4.90;;;1.70;;
57331;SDS011;43164;50.908;18.092;2023-04-01T07:28:03;4.70;;;1.70;;
57331;SDS011;43164;50.908;18.092;2023-04-01T07:33:54;5.90;;;2.30;;
57331;SDS011;43164;50.908;18.092;2023-04-01T07:36:50;4.60;;;1.70;;
57331;SDS011;43164;50.908;18.092;2023-04-01T07:39:51;5.30;;;2.00;;
57331;SDS011;43164;50.908;18.092;2023-04-01T07:56:11;5.70;;;1.70;;
57331;SDS011;43164;50.908;18.092;2023-04-01T07:58:49;5.60;;;1.90;;
57331;SDS011;43164;50.908;18.092;2023-04-01T08:01:34;4.60;;;1.60;;
57331;SDS011;43164;50.908;18.092;2023-04-01T08:04:43;6.20;;;1.70;;
57331;SDS011;43164;50.908;18.092;2023-04-01T08:07:21;4.10;;;1.80;;
57331;SDS011;43164;50.908;18.092;2023-04-01T08:10:21;4.30;;;1.40;;
57331;SDS011;43164;50.908;18.092;2023-04-01T08:16:25;3.20;;;1.00;;
57331;SDS011;43164;50.908;18.092;2023-04-01T08:22:03;4.10;;;1.00;;
57331;SDS011;43164;50.908;18.092;2023-04-01T08:24:46;3.20;;;1.10;;
57331;SDS011;43164;50.908;18.092;2023-04-01T08:34:01;2.40;;;0.80;;
57331;SDS011;43164;50.908;18.092;2023-04-01T08:36:32;3.60;;;0.90;;
57331;SDS011;43164;50.908;18.092;2023-04-01T08:45:38;3.00;;;0.90;;
57331;SDS011;43164;50.908;18.092;2023-04-01T08:51:08;3.50;;;1.00;;
57331;SDS011;43164;50.908;18.092;2023-04-01T08:54:02;3.60;;;0.90;;
57331;SDS011;43164;50.908;18.092;2023-04-01T08:56:59;1.80;;;0.80;;
57331;SDS011;43164;50.908;18.092;2023-04-01T08:59:50;2.90;;;1.00;;
57331;SDS011;43164;50.908;18.092;2023-04-01T09:09:02;2.00;;;1.00;;
57331;SDS011;43164;50.908;18.092;2023-04-01T09:11:28;2.30;;;0.90;;
57331;SDS011;43164;50.908;18.092;2023-04-01T09:25:06;3.10;;;1.20;;
57331;SDS011;43164;50.908;18.092;2023-04-01T09:37:51;2.90;;;1.40;;
57331;SDS011;43164;50.908;18.092;2023-04-01T09:43:44;3.40;;;1.40;;
57331;SDS011;43164;50.908;18.092;2023-04-01T10:09:11;5.20;;;1.20;;
57331;SDS011;43164;50.908;18.092;2023-04-01T10:21:56;3.70;;;1.30;;
57331;SDS011;43164;50.908;18.092;2023-04-01T10:25:02;4.70;;;1.40;;
57331;SDS011;43164;50.908;18.092;2023-04-01T10:31:03;4.50;;;1.40;;
57331;SDS011;43164;50.908;18.092;2023-04-01T10:34:04;4.00;;;1.30;;
57331;SDS011;43164;50.908;18.092;2023-04-01T10:45:26;5.40;;;1.30;;
57331;SDS011;43164;50.908;18.092;2023-04-01T10:48:35;4.40;;;1.30;;
57331;SDS011;43164;50.908;18.092;2023-04-01T11:00:27;3.80;;;1.30;;
57331;SDS011;43164;50.908;18.092;2023-04-01T11:12:34;1.30;;;0.40;;
57331;SDS011;43164;50.908;18.092;2023-04-01T11:18:58;1.40;;;0.50;;
57331;SDS011;43164;50.908;18.092;2023-04-01T11:30:22;2.20;;;0.60;;
57331;SDS011;43164;50.908;18.092;2023-04-01T11:36:10;2.30;;;0.80;;
57331;SDS011;43164;50.908;18.092;2023-04-01T11:50:51;2.90;;;0.70;;
57331;SDS011;43164;50.908;18.092;2023-04-01T12:05:21;2.00;;;0.70;;
57331;SDS011;43164;50.908;18.092;2023-04-01T12:08:16;2.60;;;0.60;;
57331;SDS011;43164;50.908;18.092;2023-04-01T12:11:12;2.10;;;0.50;;
57331;SDS011;43164;50.908;18.092;2023-04-01T12:22:23;3.30;;;0.70;;
57331;SDS011;43164;50.908;18.092;2023-04-01T12:33:48;2.10;;;0.60;;
57331;SDS011;43164;50.908;18.092;2023-04-01T12:37:04;1.60;;;0.60;;
57331;SDS011;43164;50.908;18.092;2023-04-01T12:53:40;2.10;;;0.70;;
57331;SDS011;43164;50.908;18.092;2023-04-01T12:59:02;2.30;;;0.70;;
57331;SDS011;43164;50.908;18.092;2023-04-01T13:11:08;1.10;;;0.50;;
57331;SDS011;43164;50.908;18.092;2023-04-01T13:34:36;1.50;;;0.60;;
57331;SDS011;43164;50.908;18.092;2023-04-01T13:48:24;1.50;;;0.60;;
57331;SDS011;43164;50.908;18.092;2023-04-01T14:06:49;1.50;;;0.60;;
57331;SDS011;43164;50.908;18.092;2023-04-01T14:13:29;1.60;;;0.60;;
57331;SDS011;43164;50.908;18.092;2023-04-01T14:28:53;2.10;;;0.80;;
57331;SDS011;43164;50.908;18.092;2023-04-01T14:38:01;3.20;;;1.00;;
57331;SDS011;43164;50.908;18.092;2023-04-01T14:40:48;2.20;;;0.80;;
57331;SDS011;43164;50.908;18.092;2023-04-01T14:49:22;1.60;;;0.70;;
57331;SDS011;43164;50.908;18.092;2023-04-01T14:52:13;1.20;;;0.40;;
57331;SDS011;43164;50.908;18.092;2023-04-01T14:58:10;2.20;;;0.50;;
57331;SDS011;43164;50.908;18.092;2023-04-01T15:13:30;0.90;;;0.30;;
57331;SDS011;43164;50.908;18.092;2023-04-01T15:16:19;1.10;;;0.40;;
57331;SDS011;43164;50.908;18.092;2023-04-01T15:19:15;1.30;;;0.30;;
57331;SDS011;43164;50.908;18.092;2023-04-01T15:21:59;10.50;;;5.40;;
57331;SDS011;43164;50.908;18.092;2023-04-01T15:24:49;5.20;;;1.90;;
57331;SDS011;43164;50.908;18.092;2023-04-01T15:34:17;18.20;;;9.90;;
57331;SDS011;43164;50.908;18.092;2023-04-01T15:42:33;8.20;;;3.90;;
57331;SDS011;43164;50.908;18.092;2023-04-01T15:45:26;6.20;;;2.80;;
57331;SDS011;43164;50.908;18.092;2023-04-01T15:56:36;5.70;;;1.50;;
57331;SDS011;43164;50.908;18.092;2023-04-01T16:05:01;10.80;;;5.90;;
57331;SDS011;43164;50.908;18.092;2023-04-01T16:11:21;20.00;;;10.70;;
57331;SDS011;43164;50.908;18.092;2023-04-01T16:29:11;6.80;;;3.40;;
57331;SDS011;43164;50.908;18.092;2023-04-01T16:34:27;10.50;;;7.30;;
57331;SDS011;43164;50.908;18.092;2023-04-01T16:42:34;7.40;;;3.80;;
57331;SDS011;43164;50.908;18.092;2023-04-01T16:45:31;11.80;;;5.40;;
57331;SDS011;43164;50.908;18.092;2023-04-01T16:48:17;15.30;;;8.50;;
57331;SDS011;43164;50.908;18.092;2023-04-01T16:51:13;17.50;;;10.90;;
57331;SDS011;43164;50.908;18.092;2023-04-01T16:53:53;33.50;;;20.70;;
57331;SDS011;43164;50.908;18.092;2023-04-01T16:56:48;13.30;;;7.00;;
57331;SDS011;43164;50.908;18.092;2023-04-01T16:59:27;31.80;;;18.80;;
57331;SDS011;43164;50.908;18.092;2023-04-01T17:07:47;19.90;;;12.10;;
57331;SDS011;43164;50.908;18.092;2023-04-01T17:15:39;9.20;;;4.10;;
57331;SDS011;43164;50.908;18.092;2023-04-01T17:21:18;7.40;;;2.90;;
57331;SDS011;43164;50.908;18.092;2023-04-01T17:32:36;6.50;;;2.60;;
57331;SDS011;43164;50.908;18.092;2023-04-01T17:35:40;6.30;;;2.60;;
57331;SDS011;43164;50.908;18.092;2023-04-01T17:38:27;7.40;;;3.00;;
57331;SDS011;43164;50.908;18.092;2023-04-01T17:41:09;11.00;;;4.90;;
57331;SDS011;43164;50.908;18.092;2023-04-01T17:49:38;14.60;;;7.60;;
57331;SDS011;43164;50.908;18.092;2023-04-01T17:52:30;19.40;;;11.10;;
57331;SDS011;43164;50.908;18.092;2023-04-01T17:55:37;21.20;;;11.70;;
57331;SDS011;43164;50.908;18.092;2023-04-01T17:58:21;27.50;;;15.10;;
57331;SDS011;43164;50.908;18.092;2023-04-01T18:16:11;39.40;;;23.00;;
57331;SDS011;43164;50.908;18.092;2023-04-01T18:22:36;41.40;;;23.10;;
57331;SDS011;43164;50.908;18.092;2023-04-01T18:46:34;65.10;;;34.10;;
57331;SDS011;43164;50.908;18.092;2023-04-01T18:56:48;61.70;;;31.90;;
57331;SDS011;43164;50.908;18.092;2023-04-01T19:02:48;64.90;;;33.50;;
57331;SDS011;43164;50.908;18.092;2023-04-01T19:06:26;78.50;;;40.30;;
57331;SDS011;43164;50.908;18.092;2023-04-01T19:15:33;73.20;;;37.20;;
57331;SDS011;43164;50.908;18.092;2023-04-01T19:18:07;84.10;;;41.90;;
57331;SDS011;43164;50.908;18.092;2023-04-01T19:27:02;71.40;;;36.70;;
57331;SDS011;43164;50.908;18.092;2023-04-01T19:29:45;75.60;;;38.40;;
57331;SDS011;43164;50.908;18.092;2023-04-01T19:47:03;76.80;;;38.00;;
57331;SDS011;43164;50.908;18.092;2023-04-01T19:52:35;76.60;;;36.50;;
57331;SDS011;43164;50.908;18.092;2023-04-01T19:58:28;73.90;;;37.30;;
57331;SDS011;43164;50.908;18.092;2023-04-01T20:01:21;76.60;;;40.00;;
57331;SDS011;43164;50.908;18.092;2023-04-01T20:03:58;75.30;;;38.30;;
57331;SDS011;43164;50.908;18.092;2023-04-01T20:06:35;89.40;;;41.40;;
57331;SDS011;43164;50.908;18.092;2023-04-01T20:12:33;82.50;;;41.30;;
57331;SDS011;43164;50.908;18.092;2023-04-01T20:15:04;84.60;;;42.70;;
57331;SDS011;43164;50.908;18.092;2023-04-01T20:17:51;85.30;;;42.10;;
57331;SDS011;43164;50.908;18.092;2023-04-01T20:20:21;82.70;;;39.20;;
57331;SDS011;43164;50.908;18.092;2023-04-01T20:28:28;73.20;;;36.30;;
57331;SDS011;43164;50.908;18.092;2023-04-01T20:42:04;82.90;;;37.90;;
57331;SDS011;43164;50.908;18.092;2023-04-01T20:44:46;59.70;;;29.20;;
57331;SDS011;43164;50.908;18.092;2023-04-01T20:47:51;59.70;;;29.40;;
57331;SDS011;43164;50.908;18.092;2023-04-01T20:56:29;56.20;;;27.70;;
57331;SDS011;43164;50.908;18.092;2023-04-01T20:59:09;59.40;;;30.10;;
57331;SDS011;43164;50.908;18.092;2023-04-01T21:02:11;58.70;;;27.60;;
57331;SDS011;43164;50.908;18.092;2023-04-01T21:14:45;121.80;;;55.30;;
57331;SDS011;43164;50.908;18.092;2023-04-01T21:23:46;101.50;;;57.80;;
57331;SDS011;43164;50.908;18.092;2023-04-01T21:26:29;96.40;;;48.30;;
57331;SDS011;43164;50.908;18.092;2023-04-01T21:35:51;74.40;;;32.90;;
57331;SDS011;43164;50.908;18.092;2023-04-01T21:58:22;109.80;;;40.00;;
57331;SDS011;43164;50.908;18.092;2023-04-01T22:01:34;59.60;;;27.40;;
57331;SDS011;43164;50.908;18.092;2023-04-01T22:04:31;95.70;;;37.00;;
57331;SDS011;43164;50.908;18.092;2023-04-01T22:07:29;77.50;;;33.40;;
57331;SDS011;43164;50.908;18.092;2023-04-01T22:11:34;61.20;;;27.80;;
57331;SDS011;43164;50.908;18.092;2023-04-01T22:18:57;70.70;;;31.00;;
57331;SDS011;43164;50.908;18.092;2023-04-01T22:28:07;66.80;;;29.70;;
57331;SDS011;43164;50.908;18.092;2023-04-01T22:31:17;93.00;;;32.50;;
57331;SDS011;43164;50.908;18.092;2023-04-01T22:34:09;96.90;;;34.70;;
57331;SDS011;43164;50.908;18.092;2023-04-01T22:39:43;71.40;;;29.90;;
57331;SDS011;43164;50.908;18.092;2023-04-01T22:42:46;77.70;;;30.20;;
57331;SDS011;43164;50.908;18.092;2023-04-01T22:48:27;56.20;;;25.30;;
57331;SDS011;43164;50.908;18.092;2023-04-01T23:02:36;66.30;;;26.70;;
57331;SDS011;43164;50.908;18.092;2023-04-01T23:05:00;55.40;;;25.90;;
57331;SDS011;43164;50.908;18.092;2023-04-01T23:13:15;48.50;;;22.90;;
57331;SDS011;43164;50.908;18.092;2023-04-01T23:15:57;57.40;;;26.10;;
57331;SDS011;43164;50.908;18.092;2023-04-01T23:31:35;62.40;;;28.20;;
57331;SDS011;43164;50.908;18.092;2023-04-01T23:37:28;61.10;;;27.70;;
57331;SDS011;43164;50.908;18.092;2023-04-01T23:40:02;72.20;;;32.40;;
57331;SDS011;43164;50.908;18.092;2023-04-01T23:42:33;53.00;;;23.10;;
57331;SDS011;43164;50.908;18.092;2023-04-01T23:45:17;47.80;;;20.90;;
57331;SDS011;43164;50.908;18.092;2023-04-01T23:47:47;55.80;;;26.10;;
57331;SDS011;43164;50.908;18.092;2023-04-01T23:50:17;46.50;;;22.80;;
57331;SDS011;43164;50.908;18.092;2023-04-01T23:52:48;48.40;;;22.70;;
57331;SDS011;43164;50.908;18.092;2023-04-01T23:55:25;42.50;;;20.60;;
